createdAt,value
2023-01-10T00:02:44.497Z,1.48
2023-01-10T00:07:46.705Z,1.40
2023-01-10T00:13:07.330Z,1.50
2023-01-10T00:18:09.471Z,1.48
2023-01-10T00:23:11.200Z,2.10
2023-01-10T00:28:15.581Z,0.98
2023-01-10T00:33:19.749Z,0.90
2023-01-10T00:38:21.287Z,1.10
2023-01-10T00:43:41.655Z,1.42
2023-01-10T00:48:45.397Z,1.60
2023-01-10T00:53:46.946Z,1.75
2023-01-10T00:58:48.443Z,1.70
2023-01-10T01:03:49.943Z,1.70
2023-01-10T01:08:51.696Z,1.70
2023-01-10T01:13:53.231Z,2.15
2023-01-10T01:18:54.744Z,1.45
2023-01-10T01:23:59.189Z,1.10
2023-01-10T01:29:00.804Z,0.82
2023-01-10T01:34:02.339Z,0.70
2023-01-10T01:39:04.384Z,0.60
2023-01-10T01:44:12.984Z,0.85
2023-01-10T01:49:20.020Z,0.55
2023-01-10T01:54:21.610Z,0.50
2023-01-10T01:59:33.553Z,0.88
2023-01-10T02:04:57.670Z,0.70
2023-01-10T02:10:11.097Z,0.45
2023-01-10T02:15:15.242Z,0.50
2023-01-10T02:20:19.376Z,0.63
2023-01-10T02:25:32.656Z,0.50
2023-01-10T02:30:59.889Z,0.80
2023-01-10T02:36:16.615Z,2.05
2023-01-10T02:41:47.521Z,1.83
2023-01-10T02:46:49.865Z,2.67
2023-01-10T02:51:51.543Z,5.22
2023-01-10T02:57:17.846Z,7.57
2023-01-10T03:02:28.651Z,3.10
2023-01-10T03:07:53.211Z,5.10
2023-01-10T03:13:00.945Z,7.72
2023-01-10T03:18:06.914Z,4.88
2023-01-10T03:23:10.477Z,1.80
2023-01-10T03:28:15.495Z,1.38
2023-01-10T03:33:22.344Z,1.42
2023-01-10T03:38:32.643Z,1.20
2023-01-10T03:44:07.313Z,1.45
2023-01-10T03:49:10.986Z,1.55
2023-01-10T03:54:16.625Z,5.38
2023-01-10T03:59:23.313Z,4.75
2023-01-10T04:04:25.032Z,6.20
2023-01-10T04:09:26.746Z,4.63
2023-01-10T04:14:28.767Z,8.63
2023-01-10T04:19:30.360Z,2.70
2023-01-10T04:24:32.367Z,1.90
2023-01-10T04:29:33.872Z,2.35
2023-01-10T04:34:35.391Z,1.80
2023-01-10T04:39:36.896Z,1.45
2023-01-10T04:44:38.394Z,1.50
2023-01-10T04:49:39.941Z,1.80
2023-01-10T04:54:41.481Z,2.22
2023-01-10T04:59:45.179Z,1.48
2023-01-10T05:04:46.675Z,1.98
2023-01-10T05:09:48.164Z,2.00
2023-01-10T05:14:49.732Z,2.03
2023-01-10T05:19:51.281Z,2.03
2023-01-10T05:24:54.605Z,2.90
2023-01-10T05:29:56.247Z,1.90
2023-01-10T05:34:57.759Z,2.30
2023-01-10T05:39:59.327Z,2.20
2023-01-10T05:45:00.888Z,2.00
2023-01-10T05:50:02.461Z,1.85
2023-01-10T05:55:04.356Z,1.92
2023-01-10T06:00:06.701Z,1.80
2023-01-10T06:05:13.018Z,2.35
2023-01-10T06:10:14.861Z,2.47
2023-01-10T06:15:17.356Z,2.35
2023-01-10T06:20:18.987Z,1.88
2023-01-10T06:25:20.670Z,2.38
2023-01-10T06:30:22.319Z,3.67
2023-01-10T06:35:23.868Z,3.13
2023-01-10T06:40:26.599Z,2.92
2023-01-10T06:45:28.208Z,2.60
2023-01-10T06:50:29.770Z,2.55
2023-01-10T06:55:31.814Z,3.05
2023-01-10T07:00:33.643Z,6.32
2023-01-10T07:05:35.268Z,10.25
2023-01-10T07:10:36.864Z,8.25
2023-01-10T07:15:38.399Z,4.18
2023-01-10T07:20:40.058Z,3.67
2023-01-10T07:25:41.595Z,3.30
2023-01-10T07:30:43.127Z,3.25
2023-01-10T07:35:44.646Z,3.55
2023-01-10T07:40:46.223Z,3.70
2023-01-10T07:45:47.941Z,3.70
2023-01-10T07:50:49.487Z,4.22
2023-01-10T07:55:51.291Z,3.65
2023-01-10T08:00:57.556Z,4.28
2023-01-10T08:06:06.063Z,3.00
2023-01-10T08:11:07.788Z,2.72
2023-01-10T08:16:09.629Z,3.13
2023-01-10T08:21:11.234Z,4.55
2023-01-10T08:26:12.781Z,2.78
2023-01-10T08:31:14.697Z,4.22
2023-01-10T08:36:18.780Z,3.35
2023-01-10T08:41:20.393Z,2.88
2023-01-10T08:46:22.139Z,2.50
2023-01-10T08:51:24.068Z,2.85
2023-01-10T08:56:25.743Z,2.20
2023-01-10T09:01:27.523Z,2.10
2023-01-10T09:06:29.192Z,2.08
2023-01-10T09:11:30.709Z,2.10
2023-01-10T09:16:32.243Z,1.75
2023-01-10T09:21:33.782Z,1.85
2023-01-10T09:26:35.308Z,1.70
2023-01-10T09:31:36.847Z,1.83
2023-01-10T09:36:38.425Z,1.77
2023-01-10T09:41:50.072Z,1.50
2023-01-10T09:47:08.419Z,1.75
2023-01-10T09:52:32.604Z,1.52
2023-01-10T09:57:35.081Z,1.60
2023-01-10T10:02:42.923Z,1.75
2023-01-10T10:07:45.711Z,1.35
2023-01-10T10:12:50.047Z,1.83
2023-01-10T10:17:57.607Z,2.08
2023-01-10T10:23:26.738Z,2.72
2023-01-10T10:28:55.643Z,1.53
2023-01-10T10:34:03.273Z,1.27
2023-01-10T10:39:06.995Z,1.50
2023-01-10T10:44:26.894Z,1.65
2023-01-10T10:54:39.234Z,1.35
2023-01-10T10:59:46.405Z,1.52
2023-01-10T11:04:53.023Z,1.45
2023-01-10T11:09:54.736Z,1.60
2023-01-10T11:14:56.477Z,1.67
2023-01-10T11:19:59.643Z,2.05
2023-01-10T11:25:03.019Z,1.88
2023-01-10T11:30:09.310Z,2.00
2023-01-10T11:35:21.921Z,1.90
2023-01-10T11:40:26.099Z,2.17
2023-01-10T11:45:33.439Z,2.78
2023-01-10T11:50:38.268Z,1.90
2023-01-10T11:55:39.860Z,2.10
2023-01-10T12:00:46.943Z,2.10
2023-01-10T12:06:01.502Z,2.00
2023-01-10T12:11:07.919Z,3.65
2023-01-10T12:16:22.369Z,2.17
2023-01-10T12:21:34.591Z,1.80
2023-01-10T12:26:38.888Z,1.38
2023-01-10T12:31:41.141Z,2.88
2023-01-10T12:36:49.391Z,2.10
2023-01-10T12:42:21.149Z,1.70
2023-01-10T12:47:34.676Z,1.40
2023-01-10T12:52:52.663Z,1.40
2023-01-10T12:57:59.621Z,2.10
2023-01-10T13:03:09.209Z,4.22
2023-01-10T13:08:14.223Z,1.83
2023-01-10T13:13:19.985Z,1.60
2023-01-10T13:18:27.445Z,3.30
2023-01-10T13:23:33.337Z,2.55
2023-01-10T13:28:38.431Z,2.33
2023-01-10T13:33:46.079Z,1.40
2023-01-10T13:38:51.353Z,2.53
2023-01-10T13:44:01.743Z,1.38
2023-01-10T13:49:03.555Z,1.75
2023-01-10T13:54:25.364Z,1.60
2023-01-10T13:59:45.658Z,1.42
2023-01-10T14:04:52.846Z,1.42
2023-01-10T14:10:03.832Z,1.25
2023-01-10T14:15:24.539Z,1.25
2023-01-10T14:25:29.189Z,9.40
2023-01-10T14:30:33.994Z,8.43
2023-01-10T14:35:44.312Z,3.40
2023-01-10T14:40:49.994Z,4.40
2023-01-10T14:46:04.103Z,4.00
2023-01-10T14:51:09.451Z,2.58
2023-01-10T14:56:41.457Z,1.55
2023-01-10T15:01:43.350Z,1.52
2023-01-10T15:07:25.351Z,1.30
2023-01-10T15:12:29.176Z,0.88
2023-01-10T15:17:31.623Z,0.93
2023-01-10T15:22:35.671Z,1.00
2023-01-10T15:27:45.286Z,1.17
2023-01-10T15:32:50.460Z,1.52
2023-01-10T15:37:57.361Z,0.90
2023-01-10T15:43:16.920Z,1.02
2023-01-10T15:48:24.552Z,0.80
2023-01-10T15:54:04.791Z,1.02
2023-01-10T15:59:23.428Z,0.90
2023-01-10T16:04:25.035Z,0.95
2023-01-10T16:09:26.678Z,1.13
2023-01-10T16:14:28.197Z,1.05
2023-01-10T16:19:29.778Z,1.05
2023-01-10T16:24:34.189Z,1.20
2023-01-10T16:29:35.828Z,2.33
2023-01-10T16:34:37.396Z,1.23
2023-01-10T16:39:39.070Z,8.00
2023-01-10T16:44:41.648Z,4.80
2023-01-10T16:49:43.379Z,9.20
2023-01-10T16:54:44.972Z,6.40
2023-01-10T16:59:46.574Z,10.25
2023-01-10T17:04:48.195Z,6.80
2023-01-10T17:09:49.874Z,3.08
2023-01-10T17:14:52.636Z,2.50
2023-01-10T17:19:54.193Z,1.33
2023-01-10T17:24:55.736Z,1.67
2023-01-10T17:29:57.274Z,1.27
2023-01-10T17:34:58.782Z,1.30
2023-01-10T17:40:00.319Z,1.35
2023-01-10T17:45:01.859Z,1.48
2023-01-10T17:50:04.016Z,1.67
2023-01-10T17:55:07.510Z,1.55
2023-01-10T18:00:10.188Z,1.27
2023-01-10T18:05:11.752Z,1.52
2023-01-10T18:10:13.337Z,1.42
2023-01-10T18:15:14.862Z,1.67
2023-01-10T18:20:16.748Z,1.45
2023-01-10T18:25:19.360Z,1.42
2023-01-10T18:30:24.267Z,1.55
2023-01-10T18:35:26.847Z,1.17
2023-01-10T18:40:30.983Z,1.50
2023-01-10T18:45:32.663Z,1.50
2023-01-10T18:50:34.197Z,1.50
2023-01-10T18:55:35.770Z,2.17
2023-01-10T19:00:37.343Z,1.70
2023-01-10T19:05:38.913Z,0.93
2023-01-10T19:11:07.078Z,1.23
2023-01-10T19:16:17.878Z,1.55
2023-01-10T19:21:19.898Z,1.60
2023-01-10T19:26:21.710Z,1.65
2023-01-10T19:31:26.541Z,1.50
2023-01-10T19:36:28.990Z,1.15
2023-01-10T19:41:30.785Z,1.95
2023-01-10T19:46:34.070Z,1.92
2023-01-10T19:51:36.964Z,8.15
2023-01-10T19:56:38.619Z,2.80
2023-01-10T20:01:40.773Z,4.25
2023-01-10T20:06:42.773Z,2.00
2023-01-10T20:11:46.198Z,0.95
2023-01-10T20:16:48.892Z,0.95
2023-01-10T20:21:50.540Z,3.10
2023-01-10T20:26:52.096Z,1.05
2023-01-10T20:31:55.922Z,0.90
2023-01-10T20:36:57.618Z,0.98
2023-01-10T20:41:59.457Z,1.48
2023-01-10T20:47:01.057Z,0.80
2023-01-10T20:52:02.570Z,0.75
2023-01-10T20:57:04.168Z,1.08
2023-01-10T21:02:05.719Z,0.90
2023-01-10T21:07:07.426Z,0.82
2023-01-10T21:12:22.022Z,0.82
2023-01-10T21:17:24.622Z,0.60
2023-01-10T21:22:28.053Z,0.88
2023-01-10T21:27:31.306Z,0.90
2023-01-10T21:32:33.151Z,1.08
2023-01-10T21:37:34.668Z,0.52
2023-01-10T21:42:42.645Z,0.82
2023-01-10T21:47:44.278Z,0.60
2023-01-10T21:52:45.821Z,0.50
2023-01-10T21:57:47.341Z,0.82
2023-01-10T22:02:48.906Z,0.90
2023-01-10T22:07:50.420Z,0.70
2023-01-10T22:12:52.007Z,1.38
2023-01-10T22:17:53.618Z,0.73
2023-01-10T22:22:55.333Z,0.70
2023-01-10T22:27:56.875Z,0.70
2023-01-10T22:32:58.396Z,0.68
2023-01-10T22:37:59.920Z,0.82
2023-01-10T22:43:01.530Z,0.60
2023-01-10T22:48:03.135Z,0.60
2023-01-10T22:53:04.663Z,0.77
2023-01-10T22:58:06.179Z,0.60
2023-01-10T23:03:07.817Z,0.50
2023-01-10T23:08:09.459Z,0.50
2023-01-10T23:13:11.033Z,1.00
2023-01-10T23:18:12.554Z,0.55
2023-01-10T23:23:14.219Z,0.90
2023-01-10T23:28:15.710Z,1.30
2023-01-10T23:33:17.623Z,0.90
2023-01-10T23:38:19.380Z,0.93
2023-01-10T23:43:23.280Z,1.30
2023-01-10T23:48:25.252Z,0.80
2023-01-10T23:53:27.081Z,0.70
2023-01-10T23:58:28.615Z,0.80
